Time,TemperatureF,DewpointF,PressureIn,WindDirection,WindDirectionDegrees,WindSpeedMPH,WindSpeedGustMPH,Humidity,HourlyPrecipIn,Conditions,Clouds,dailyrainin,SolarRadiationWatts/m^2,SoftwareType,DateUTC
2013-05-11 00:01:00,58.0,42.8,29.93,South,180,5.0,-999.0,57,0.00,,,0.30,0,Wunderground v.1.15,2013-05-11 04:01:00,
2013-05-11 00:06:00,58.0,42.8,29.93,South,180,5.0,-999.0,57,0.00,,,0.30,0,Wunderground v.1.15,2013-05-11 04:06:00,
2013-05-11 00:11:00,58.0,42.4,29.92,SSW,203,3.0,-999.0,56,0.00,,,0.30,0,Wunderground v.1.15,2013-05-11 04:11:00,
2013-05-11 00:16:00,58.1,42.5,29.92,South,180,5.0,-999.0,56,0.00,,,0.30,0,Wunderground v.1.15,2013-05-11 04:16:00,
2013-05-11 00:21:00,58.0,42.4,29.92,South,180,6.0,-999.0,56,0.00,,,0.30,0,Wunderground v.1.15,2013-05-11 04:21:00,
2013-05-11 00:26:00,57.9,42.3,29.92,South,180,5.0,-999.0,56,0.00,,,0.30,0,Wunderground v.1.15,2013-05-11 04:26:00,
2013-05-11 00:31:00,57.9,42.3,29.92,SSW,203,6.0,-999.0,56,0.00,,,0.30,0,Wunderground v.1.15,2013-05-11 04:31:00,
2013-05-11 00:36:00,57.9,42.3,29.92,SSW,203,8.0,-999.0,56,0.00,,,0.30,0,Wunderground v.1.15,2013-05-11 04:36:00,
2013-05-11 00:41:00,57.9,42.3,29.92,SSW,203,7.0,-999.0,56,0.00,,,0.30,0,Wunderground v.1.15,2013-05-11 04:41:00,
2013-05-11 00:46:00,58.0,42.4,29.92,SSW,203,6.0,-999.0,56,0.00,,,0.30,0,Wunderground v.1.15,2013-05-11 04:46:00,
2013-05-11 00:51:00,57.9,42.3,29.91,SSW,203,7.0,-999.0,56,0.00,,,0.30,0,Wunderground v.1.15,2013-05-11 04:51:00,
2013-05-11 00:56:00,57.7,42.1,29.92,SSW,203,6.0,-999.0,56,0.00,,,0.30,0,Wunderground v.1.15,2013-05-11 04:56:00,
2013-05-11 01:01:00,57.5,41.9,29.91,South,180,5.0,-999.0,56,0.00,,,0.30,0,Wunderground v.1.15,2013-05-11 05:01:00,
2013-05-11 01:06:00,57.4,41.8,29.91,South,180,5.0,-999.0,56,0.00,,,0.30,0,Wunderground v.1.15,2013-05-11 05:06:00,
2013-05-11 01:11:00,57.4,41.8,29.91,SSW,203,6.0,-999.0,56,0.00,,,0.30,0,Wunderground v.1.15,2013-05-11 05:11:00,
2013-05-11 01:16:00,57.5,41.9,29.91,South,180,5.0,-999.0,56,0.00,,,0.30,0,Wunderground v.1.15,2013-05-11 05:16:00,
2013-05-11 01:21:00,57.5,41.9,29.90,South,180,5.0,-999.0,56,0.00,,,0.30,0,Wunderground v.1.15,2013-05-11 05:21:00,
2013-05-11 01:26:00,57.5,41.9,29.90,South,180,6.0,-999.0,56,0.00,,,0.30,0,Wunderground v.1.15,2013-05-11 05:26:00,
2013-05-11 01:31:00,57.5,41.9,29.90,South,180,7.0,-999.0,56,0.00,,,0.30,0,Wunderground v.1.15,2013-05-11 05:31:00,
2013-05-11 01:36:00,57.6,42.0,29.90,South,180,6.0,-999.0,56,0.00,,,0.30,0,Wunderground v.1.15,2013-05-11 05:36:00,
2013-05-11 01:41:00,57.5,41.9,29.90,SSW,203,8.0,-999.0,56,0.00,,,0.30,0,Wunderground v.1.15,2013-05-11 05:41:00,
2013-05-11 01:46:00,57.4,42.3,29.89,SSW,203,7.0,-999.0,57,0.00,,,0.30,0,Wunderground v.1.15,2013-05-11 05:46:00,
2013-05-11 01:51:00,57.4,42.3,29.89,SSW,203,6.0,-999.0,57,0.00,,,0.30,0,Wunderground v.1.15,2013-05-11 05:51:00,
2013-05-11 01:56:00,57.4,42.3,29.88,SSW,203,7.0,-999.0,57,0.00,,,0.30,0,Wunderground v.1.15,2013-05-11 05:56:00,
2013-05-11 02:01:00,57.5,42.8,29.88,SSW,203,6.0,-999.0,58,0.00,,,0.30,0,Wunderground v.1.15,2013-05-11 06:01:00,
2013-05-11 02:06:00,57.5,42.8,29.88,SSW,203,4.0,-999.0,58,0.00,,,0.30,0,Wunderground v.1.15,2013-05-11 06:06:00,
2013-05-11 02:11:00,57.7,43.0,29.89,South,180,6.0,-999.0,58,0.00,,,0.30,0,Wunderground v.1.15,2013-05-11 06:11:00,
2013-05-11 02:16:00,58.1,43.4,29.89,SSW,203,6.0,-999.0,58,0.00,,,0.30,0,Wunderground v.1.15,2013-05-11 06:16:00,
2013-05-11 02:21:00,58.3,44.0,29.88,SW,225,8.0,-999.0,59,0.00,,,0.30,0,Wunderground v.1.15,2013-05-11 06:21:00,
2013-05-11 02:26:00,58.4,44.6,29.88,SW,225,4.0,-999.0,60,0.00,,,0.30,0,Wunderground v.1.15,2013-05-11 06:26:00,
2013-05-11 02:31:00,58.6,45.2,29.88,SSW,203,7.0,-999.0,61,0.00,,,0.30,0,Wunderground v.1.15,2013-05-11 06:31:00,
2013-05-11 02:36:00,58.8,45.8,29.87,SSW,203,7.0,-999.0,62,0.00,,,0.30,0,Wunderground v.1.15,2013-05-11 06:36:00,
2013-05-11 02:41:00,59.0,46.4,29.87,SSW,203,8.0,-999.0,63,0.00,,,0.30,0,Wunderground v.1.15,2013-05-11 06:41:00,
2013-05-11 02:46:00,59.0,46.8,29.87,SSW,203,7.0,-999.0,64,0.00,,,0.30,0,Wunderground v.1.15,2013-05-11 06:46:00,
2013-05-11 02:51:00,59.0,47.2,29.86,SSW,203,7.0,-999.0,65,0.00,,,0.30,0,Wunderground v.1.15,2013-05-11 06:51:00,
2013-05-11 02:56:00,59.1,47.7,29.86,SSW,203,9.0,-999.0,66,0.00,,,0.30,0,Wunderground v.1.15,2013-05-11 06:56:00,
2013-05-11 03:01:00,59.1,48.1,29.87,SSW,203,5.0,-999.0,67,0.00,,,0.30,0,Wunderground v.1.15,2013-05-11 07:01:00,
2013-05-11 03:06:00,59.1,48.1,29.87,SW,225,8.0,-999.0,67,0.00,,,0.30,0,Wunderground v.1.15,2013-05-11 07:06:00,
2013-05-11 03:11:00,59.1,48.5,29.87,SSW,203,6.0,-999.0,68,0.00,,,0.30,0,Wunderground v.1.15,2013-05-11 07:11:00,
2013-05-11 03:16:00,59.1,48.5,29.86,SW,225,5.0,-999.0,68,0.00,,,0.30,0,Wunderground v.1.15,2013-05-11 07:16:00,
2013-05-11 03:21:00,59.2,48.2,29.87,SW,225,5.0,-999.0,67,0.00,,,0.30,0,Wunderground v.1.15,2013-05-11 07:21:00,
2013-05-11 03:26:00,59.3,48.7,29.87,SW,225,9.0,-999.0,68,0.00,,,0.30,0,Wunderground v.1.15,2013-05-11 07:26:00,
2013-05-11 03:31:00,59.4,48.8,29.87,WSW,248,4.0,-999.0,68,0.00,,,0.30,0,Wunderground v.1.15,2013-05-11 07:31:00,
2013-05-11 03:36:00,59.3,49.1,29.86,SW,225,5.0,-999.0,69,0.00,,,0.30,0,Wunderground v.1.15,2013-05-11 07:36:00,
2013-05-11 03:41:00,59.3,49.1,29.87,SW,225,7.0,-999.0,69,0.00,,,0.30,0,Wunderground v.1.15,2013-05-11 07:41:00,
2013-05-11 03:46:00,59.1,48.9,29.87,SW,225,8.0,-999.0,69,0.00,,,0.30,0,Wunderground v.1.15,2013-05-11 07:46:00,
2013-05-11 03:51:00,58.9,48.7,29.88,SW,225,9.0,-999.0,69,0.00,,,0.30,0,Wunderground v.1.15,2013-05-11 07:51:00,
2013-05-11 03:56:00,58.8,48.6,29.90,SW,225,13.0,-999.0,69,0.00,,,0.30,0,Wunderground v.1.15,2013-05-11 07:56:00,
2013-05-11 04:01:00,58.6,48.5,29.90,WSW,248,14.0,-999.0,69,0.02,,,0.30,0,Wunderground v.1.15,2013-05-11 08:01:00,
2013-05-11 04:06:00,58.2,47.7,29.89,WSW,248,8.0,-999.0,68,0.05,,,0.30,0,Wunderground v.1.15,2013-05-11 08:06:00,
2013-05-11 04:11:00,58.0,46.7,29.88,WSW,248,6.0,-999.0,66,0.06,,,0.30,0,Wunderground v.1.15,2013-05-11 08:11:00,
2013-05-11 04:16:00,57.9,46.2,29.86,WSW,248,0.0,-999.0,65,0.07,,,0.30,0,Wunderground v.1.15,2013-05-11 08:16:00,
2013-05-11 04:21:00,57.9,45.8,29.85,WSW,248,3.0,-999.0,64,0.07,,,0.30,0,Wunderground v.1.15,2013-05-11 08:21:00,
2013-05-11 04:26:00,57.9,45.4,29.84,SW,225,2.0,-999.0,63,0.07,,,0.30,0,Wunderground v.1.15,2013-05-11 08:26:00,
2013-05-11 04:31:00,58.0,45.0,29.85,SSW,203,4.0,-999.0,62,0.07,,,0.30,0,Wunderground v.1.15,2013-05-11 08:31:00,
2013-05-11 04:36:00,58.2,44.8,29.84,SSW,203,3.0,-999.0,61,0.07,,,0.30,0,Wunderground v.1.15,2013-05-11 08:36:00,
2013-05-11 04:41:00,58.1,44.7,29.84,SSE,158,5.0,-999.0,61,0.07,,,0.30,0,Wunderground v.1.15,2013-05-11 08:41:00,
2013-05-11 04:46:00,57.6,44.2,29.83,SE,135,3.0,-999.0,61,0.07,,,0.30,0,Wunderground v.1.15,2013-05-11 08:46:00,
2013-05-11 04:51:00,57.3,44.0,29.84,South,180,3.0,-999.0,61,0.07,,,0.30,0,Wunderground v.1.15,2013-05-11 08:51:00,
2013-05-11 04:56:00,57.1,43.8,29.85,South,180,3.0,-999.0,61,0.07,,,0.30,0,Wunderground v.1.15,2013-05-11 08:56:00,
2013-05-11 05:01:00,56.7,43.4,29.85,SSW,203,2.0,-999.0,61,0.05,,,0.30,0,Wunderground v.1.15,2013-05-11 09:01:00,
2013-05-11 05:06:00,56.5,42.8,29.86,SSW,203,4.0,-999.0,60,0.02,,,0.30,0,Wunderground v.1.15,2013-05-11 09:06:00,
2013-05-11 05:11:00,56.5,42.8,29.86,SSW,203,5.0,-999.0,60,0.01,,,0.30,0,Wunderground v.1.15,2013-05-11 09:11:00,
2013-05-11 05:16:00,56.5,42.8,29.86,SW,225,7.0,-999.0,60,0.00,,,0.30,0,Wunderground v.1.15,2013-05-11 09:16:00,
2013-05-11 05:21:00,56.7,42.5,29.86,SW,225,9.0,-999.0,59,0.01,,,0.30,0,Wunderground v.1.15,2013-05-11 09:21:00,
2013-05-11 05:26:00,56.8,42.6,29.86,SW,225,8.0,-999.0,59,0.01,,,0.30,0,Wunderground v.1.15,2013-05-11 09:26:00,
2013-05-11 05:31:00,56.9,42.3,29.86,SSW,203,8.0,-999.0,58,0.02,,,0.30,0,Wunderground v.1.15,2013-05-11 09:31:00,
2013-05-11 05:36:00,57.1,42.5,29.86,SSW,203,8.0,-999.0,58,0.02,,,0.30,0,Wunderground v.1.15,2013-05-11 09:36:00,
2013-05-11 05:41:00,57.3,42.6,29.86,SSW,203,8.0,-999.0,58,0.02,,,0.30,0,Wunderground v.1.15,2013-05-11 09:41:00,
2013-05-11 05:46:00,57.8,42.7,29.86,SSW,203,8.0,-999.0,57,0.02,,,0.30,0,Wunderground v.1.15,2013-05-11 09:46:00,
2013-05-11 05:51:00,58.4,42.8,29.86,SW,225,10.0,-999.0,56,0.02,,,0.30,5,Wunderground v.1.15,2013-05-11 09:51:00,
2013-05-11 05:56:00,59.0,43.3,29.87,SW,225,12.0,-999.0,56,0.02,,,0.30,7,Wunderground v.1.15,2013-05-11 09:56:00,
2013-05-11 06:01:00,59.0,43.3,29.87,SW,225,10.0,-999.0,56,0.02,,,0.30,7,Wunderground v.1.15,2013-05-11 10:01:00,
2013-05-11 06:06:00,58.8,43.1,29.86,SW,225,8.0,-999.0,56,0.02,,,0.30,11,Wunderground v.1.15,2013-05-11 10:06:00,
2013-05-11 06:11:00,58.8,43.1,29.86,SW,225,8.0,-999.0,56,0.02,,,0.30,12,Wunderground v.1.15,2013-05-11 10:11:00,
2013-05-11 06:16:00,58.6,42.9,29.86,SSW,203,10.0,-999.0,56,0.02,,,0.30,16,Wunderground v.1.15,2013-05-11 10:16:00,
2013-05-11 06:21:00,58.3,42.7,29.86,SSW,203,6.0,-999.0,56,0.01,,,0.30,24,Wunderground v.1.15,2013-05-11 10:21:00,
2013-05-11 06:26:00,58.2,42.6,29.86,SSW,203,6.0,-999.0,56,0.01,,,0.30,30,Wunderground v.1.15,2013-05-11 10:26:00,
2013-05-11 06:31:00,58.1,42.5,29.86,SSW,203,5.0,-999.0,56,0.00,,,0.30,30,Wunderground v.1.15,2013-05-11 10:31:00,
2013-05-11 06:36:00,58.0,42.4,29.86,SSW,203,5.0,-999.0,56,0.00,,,0.30,37,Wunderground v.1.15,2013-05-11 10:36:00,
2013-05-11 06:41:00,58.0,42.4,29.86,SW,225,6.0,-999.0,56,0.00,,,0.30,44,Wunderground v.1.15,2013-05-11 10:41:00,
2013-05-11 06:46:00,57.9,42.3,29.86,SW,225,6.0,-999.0,56,0.00,,,0.30,39,Wunderground v.1.15,2013-05-11 10:46:00,
2013-05-11 06:51:00,57.8,42.2,29.86,WSW,248,5.0,-999.0,56,0.00,,,0.30,37,Wunderground v.1.15,2013-05-11 10:51:00,
2013-05-11 06:56:00,57.7,42.1,29.86,SW,225,6.0,-999.0,56,0.00,,,0.30,49,Wunderground v.1.15,2013-05-11 10:56:00,
2013-05-11 07:01:00,57.8,42.2,29.86,SW,225,7.0,-999.0,56,0.00,,,0.30,62,Wunderground v.1.15,2013-05-11 11:01:00,
2013-05-11 07:06:00,57.9,42.3,29.86,SW,225,6.0,-999.0,56,0.00,,,0.30,60,Wunderground v.1.15,2013-05-11 11:06:00,
2013-05-11 07:11:00,57.9,42.3,29.86,SW,225,5.0,-999.0,56,0.00,,,0.30,51,Wunderground v.1.15,2013-05-11 11:11:00,
2013-05-11 07:16:00,57.9,42.3,29.86,SW,225,6.0,-999.0,56,0.00,,,0.30,56,Wunderground v.1.15,2013-05-11 11:16:00,
2013-05-11 07:21:00,57.8,42.2,29.86,SSW,203,6.0,-999.0,56,0.00,,,0.30,51,Wunderground v.1.15,2013-05-11 11:21:00,
2013-05-11 07:26:00,57.8,42.2,29.86,SW,225,6.0,-999.0,56,0.00,,,0.30,60,Wunderground v.1.15,2013-05-11 11:26:00,
2013-05-11 07:31:00,57.8,42.2,29.85,SW,225,4.0,-999.0,56,0.00,,,0.30,74,Wunderground v.1.15,2013-05-11 11:31:00,
2013-05-11 07:36:00,57.8,42.2,29.85,SSW,203,5.0,-999.0,56,0.00,,,0.30,95,Wunderground v.1.15,2013-05-11 11:36:00,
2013-05-11 07:41:00,57.8,42.2,29.85,SW,225,4.0,-999.0,56,0.00,,,0.30,132,Wunderground v.1.15,2013-05-11 11:41:00,
2013-05-11 07:46:00,57.7,42.1,29.85,SW,225,7.0,-999.0,56,0.00,,,0.30,158,Wunderground v.1.15,2013-05-11 11:46:00,
2013-05-11 07:51:00,57.8,42.2,29.85,WSW,248,7.0,-999.0,56,0.00,,,0.30,179,Wunderground v.1.15,2013-05-11 11:51:00,
2013-05-11 07:56:00,57.8,42.2,29.85,SW,225,7.0,-999.0,56,0.00,,,0.30,204,Wunderground v.1.15,2013-05-11 11:56:00,
2013-05-11 08:01:00,58.0,42.4,29.84,SW,225,6.0,-999.0,56,0.00,,,0.30,208,Wunderground v.1.15,2013-05-11 12:01:00,
2013-05-11 08:06:00,58.1,42.5,29.84,SW,225,4.0,-999.0,56,0.00,,,0.30,165,Wunderground v.1.15,2013-05-11 12:06:00,
2013-05-11 08:11:00,58.2,42.6,29.85,SW,225,7.0,-999.0,56,0.00,,,0.30,146,Wunderground v.1.15,2013-05-11 12:11:00,
2013-05-11 08:16:00,58.6,42.9,29.84,SW,225,5.0,-999.0,56,0.00,,,0.30,141,Wunderground v.1.15,2013-05-11 12:16:00,
2013-05-11 08:21:00,59.1,42.9,29.84,SW,225,6.0,-999.0,55,0.00,,,0.30,153,Wunderground v.1.15,2013-05-11 12:21:00,
2013-05-11 08:26:00,59.3,43.6,29.84,SSW,203,11.0,-999.0,56,0.00,,,0.30,155,Wunderground v.1.15,2013-05-11 12:26:00,
2013-05-11 08:31:00,59.5,43.8,29.84,SW,225,9.0,-999.0,56,0.00,,,0.30,104,Wunderground v.1.15,2013-05-11 12:31:00,
2013-05-11 08:36:00,59.7,44.0,29.84,SW,225,11.0,-999.0,56,0.00,,,0.30,91,Wunderground v.1.15,2013-05-11 12:36:00,
2013-05-11 08:41:00,59.9,44.6,29.85,WSW,248,6.0,-999.0,57,0.00,,,0.30,121,Wunderground v.1.15,2013-05-11 12:41:00,
2013-05-11 08:46:00,59.8,45.0,29.84,WSW,248,6.0,-999.0,58,0.00,,,0.30,158,Wunderground v.1.15,2013-05-11 12:46:00,
2013-05-11 08:51:00,59.4,45.1,29.84,WSW,248,7.0,-999.0,59,0.00,,,0.30,171,Wunderground v.1.15,2013-05-11 12:51:00,
2013-05-11 08:56:00,59.3,45.4,29.84,WSW,248,6.0,-999.0,60,0.00,,,0.30,151,Wunderground v.1.15,2013-05-11 12:56:00,
2013-05-11 09:01:00,59.2,45.3,29.85,WSW,248,7.0,-999.0,60,0.00,,,0.30,178,Wunderground v.1.15,2013-05-11 13:01:00,
2013-05-11 09:06:00,59.3,45.4,29.84,SW,225,7.0,-999.0,60,0.00,,,0.30,151,Wunderground v.1.15,2013-05-11 13:06:00,
2013-05-11 09:11:00,59.4,45.5,29.85,WSW,248,8.0,-999.0,60,0.00,,,0.30,184,Wunderground v.1.15,2013-05-11 13:11:00,
2013-05-11 09:16:00,59.4,45.9,29.84,SW,225,6.0,-999.0,61,0.00,,,0.30,169,Wunderground v.1.15,2013-05-11 13:16:00,
2013-05-11 09:21:00,59.3,45.8,29.84,SW,225,10.0,-999.0,61,0.00,,,0.30,206,Wunderground v.1.15,2013-05-11 13:21:00,
2013-05-11 09:26:00,59.3,46.3,29.84,SW,225,8.0,-999.0,62,0.00,,,0.30,190,Wunderground v.1.15,2013-05-11 13:26:00,
2013-05-11 09:31:00,59.6,46.6,29.84,SW,225,9.0,-999.0,62,0.00,,,0.30,206,Wunderground v.1.15,2013-05-11 13:31:00,
2013-05-11 09:36:00,59.7,47.1,29.85,SW,225,10.0,-999.0,63,0.00,,,0.30,192,Wunderground v.1.15,2013-05-11 13:36:00,
2013-05-11 09:41:00,59.5,47.3,29.85,SW,225,8.0,-999.0,64,0.00,,,0.30,141,Wunderground v.1.15,2013-05-11 13:41:00,
2013-05-11 09:46:00,59.7,47.1,29.84,SW,225,10.0,-999.0,63,0.00,,,0.30,301,Wunderground v.1.15,2013-05-11 13:46:00,
2013-05-11 09:51:00,60.0,47.8,29.84,SW,225,12.0,-999.0,64,0.00,,,0.30,374,Wunderground v.1.15,2013-05-11 13:51:00,
2013-05-11 09:56:00,60.2,48.0,29.84,SSW,203,12.0,-999.0,64,0.00,,,0.30,355,Wunderground v.1.15,2013-05-11 13:56:00,
2013-05-11 10:01:00,60.2,48.0,29.84,SSW,203,16.0,-999.0,64,0.00,,,0.30,396,Wunderground v.1.15,2013-05-11 14:01:00,
2013-05-11 10:06:00,60.2,48.0,29.84,SSW,203,14.0,-999.0,64,0.00,,,0.30,309,Wunderground v.1.15,2013-05-11 14:06:00,
2013-05-11 10:11:00,60.2,48.0,29.84,SSW,203,10.0,-999.0,64,0.00,,,0.30,315,Wunderground v.1.15,2013-05-11 14:11:00,
2013-05-11 10:16:00,60.2,48.0,29.84,SSW,203,12.0,-999.0,64,0.00,,,0.30,320,Wunderground v.1.15,2013-05-11 14:16:00,
2013-05-11 10:21:00,60.1,47.9,29.84,SSW,203,14.0,-999.0,64,0.00,,,0.30,241,Wunderground v.1.15,2013-05-11 14:21:00,
2013-05-11 10:26:00,60.2,48.0,29.83,SSW,203,10.0,-999.0,64,0.00,,,0.30,237,Wunderground v.1.15,2013-05-11 14:26:00,
2013-05-11 10:31:00,60.1,47.9,29.83,SSW,203,9.0,-999.0,64,0.00,,,0.30,183,Wunderground v.1.15,2013-05-11 14:31:00,
2013-05-11 10:36:00,59.8,47.6,29.83,SSW,203,12.0,-999.0,64,0.00,,,0.30,160,Wunderground v.1.15,2013-05-11 14:36:00,
2013-05-11 10:41:00,59.6,47.0,29.83,SSW,203,10.0,-999.0,63,0.00,,,0.30,153,Wunderground v.1.15,2013-05-11 14:41:00,
2013-05-11 10:46:00,59.6,47.0,29.83,SSW,203,11.0,-999.0,63,0.00,,,0.30,156,Wunderground v.1.15,2013-05-11 14:46:00,
2013-05-11 10:51:00,59.6,46.6,29.83,SSW,203,6.0,-999.0,62,0.00,,,0.30,146,Wunderground v.1.15,2013-05-11 14:51:00,
2013-05-11 10:56:00,59.5,46.5,29.83,SW,225,9.0,-999.0,62,0.00,,,0.30,131,Wunderground v.1.15,2013-05-11 14:56:00,
2013-05-11 11:01:00,59.4,45.9,29.83,SW,225,9.0,-999.0,61,0.00,,,0.30,156,Wunderground v.1.15,2013-05-11 15:01:00,
2013-05-11 11:06:00,59.3,45.8,29.84,SW,225,9.0,-999.0,61,0.00,,,0.30,199,Wunderground v.1.15,2013-05-11 15:06:00,
2013-05-11 11:11:00,59.2,45.8,29.84,WSW,248,5.0,-999.0,61,0.00,,,0.30,174,Wunderground v.1.15,2013-05-11 15:11:00,
2013-05-11 11:16:00,59.0,45.6,29.84,SW,225,5.0,-999.0,61,0.00,,,0.30,295,Wunderground v.1.15,2013-05-11 15:16:00,
2013-05-11 11:21:00,58.9,45.5,29.85,SW,225,9.0,-999.0,61,0.00,,,0.30,176,Wunderground v.1.15,2013-05-11 15:21:00,
2013-05-11 11:26:00,58.7,45.3,29.85,WSW,248,7.0,-999.0,61,0.00,,,0.30,122,Wunderground v.1.15,2013-05-11 15:26:00,
2013-05-11 11:31:00,58.7,44.8,29.85,SW,225,8.0,-999.0,60,0.00,,,0.30,131,Wunderground v.1.15,2013-05-11 15:31:00,
2013-05-11 11:36:00,58.6,44.8,29.85,SW,225,8.0,-999.0,60,0.01,,,0.30,179,Wunderground v.1.15,2013-05-11 15:36:00,
2013-05-11 11:41:00,58.4,44.6,29.84,SW,225,7.0,-999.0,60,0.01,,,0.30,160,Wunderground v.1.15,2013-05-11 15:41:00,
2013-05-11 11:46:00,58.4,44.1,29.85,SW,225,8.0,-999.0,59,0.01,,,0.30,81,Wunderground v.1.15,2013-05-11 15:46:00,
2013-05-11 11:51:00,58.4,44.1,29.84,SW,225,10.0,-999.0,59,0.01,,,0.30,176,Wunderground v.1.15,2013-05-11 15:51:00,
2013-05-11 11:56:00,58.4,43.7,29.84,SSW,203,7.0,-999.0,58,0.01,,,0.30,211,Wunderground v.1.15,2013-05-11 15:56:00,
2013-05-11 12:01:00,58.5,43.8,29.84,SW,225,15.0,-999.0,58,0.01,,,0.30,170,Wunderground v.1.15,2013-05-11 16:01:00,
2013-05-11 12:06:00,58.9,44.1,29.84,SSW,203,16.0,-999.0,58,0.02,,,0.30,121,Wunderground v.1.15,2013-05-11 16:06:00,
2013-05-11 12:11:00,59.0,44.2,29.84,SW,225,18.0,-999.0,58,0.02,,,0.30,86,Wunderground v.1.15,2013-05-11 16:11:00,
2013-05-11 12:16:00,59.0,44.2,29.84,SW,225,14.0,-999.0,58,0.03,,,0.30,69,Wunderground v.1.15,2013-05-11 16:16:00,
2013-05-11 12:21:00,58.9,44.1,29.83,SW,225,16.0,-999.0,58,0.04,,,0.30,56,Wunderground v.1.15,2013-05-11 16:21:00,
2013-05-11 12:26:00,58.8,44.0,29.83,SSW,203,14.0,-999.0,58,0.04,,,0.30,60,Wunderground v.1.15,2013-05-11 16:26:00,
2013-05-11 12:31:00,58.9,43.7,29.82,SSW,203,18.0,-999.0,57,0.05,,,0.30,83,Wunderground v.1.15,2013-05-11 16:31:00,
2013-05-11 12:36:00,58.9,43.7,29.83,SSW,203,21.0,-999.0,57,0.04,,,0.30,114,Wunderground v.1.15,2013-05-11 16:36:00,
2013-05-11 12:41:00,58.7,43.5,29.82,SSW,203,19.0,-999.0,57,0.04,,,0.30,120,Wunderground v.1.15,2013-05-11 16:41:00,
2013-05-11 12:46:00,58.7,43.5,29.81,SSW,203,21.0,-999.0,57,0.04,,,0.30,125,Wunderground v.1.15,2013-05-11 16:46:00,
2013-05-11 12:51:00,58.8,43.1,29.81,SSW,203,20.0,-999.0,56,0.04,,,0.30,118,Wunderground v.1.15,2013-05-11 16:51:00,
2013-05-11 12:56:00,58.9,43.2,29.81,SSW,203,20.0,-999.0,56,0.04,,,0.30,109,Wunderground v.1.15,2013-05-11 16:56:00,
2013-05-11 13:01:00,58.9,43.2,29.81,SSW,203,18.0,-999.0,56,0.04,,,0.30,125,Wunderground v.1.15,2013-05-11 17:01:00,
2013-05-11 13:06:00,58.9,43.2,29.81,SSW,203,17.0,-999.0,56,0.03,,,0.30,148,Wunderground v.1.15,2013-05-11 17:06:00,
2013-05-11 13:11:00,58.8,43.1,29.81,SSW,203,17.0,-999.0,56,0.03,,,0.30,174,Wunderground v.1.15,2013-05-11 17:11:00,
2013-05-11 13:16:00,58.7,43.0,29.82,SSW,203,14.0,-999.0,56,0.02,,,0.30,202,Wunderground v.1.15,2013-05-11 17:16:00,
2013-05-11 13:21:00,58.7,43.0,29.82,SSW,203,18.0,-999.0,56,0.01,,,0.30,188,Wunderground v.1.15,2013-05-11 17:21:00,
2013-05-11 13:26:00,58.6,42.9,29.82,SSW,203,18.0,-999.0,56,0.01,,,0.30,179,Wunderground v.1.15,2013-05-11 17:26:00,
2013-05-11 13:31:00,58.7,43.0,29.82,SSW,203,20.0,-999.0,56,0.00,,,0.30,151,Wunderground v.1.15,2013-05-11 17:31:00,
2013-05-11 13:36:00,58.9,42.8,29.81,SSW,203,20.0,-999.0,55,0.00,,,0.30,163,Wunderground v.1.15,2013-05-11 17:36:00,
2013-05-11 13:41:00,58.9,42.8,29.81,SSW,203,18.0,-999.0,55,0.00,,,0.30,98,Wunderground v.1.15,2013-05-11 17:41:00,
2013-05-11 13:46:00,58.9,42.8,29.82,SSW,203,15.0,-999.0,55,0.00,,,0.30,98,Wunderground v.1.15,2013-05-11 17:46:00,
2013-05-11 13:51:00,58.9,42.8,29.81,SSW,203,19.0,-999.0,55,0.00,,,0.30,79,Wunderground v.1.15,2013-05-11 17:51:00,
2013-05-11 13:56:00,58.8,42.7,29.80,SSW,203,18.0,-999.0,55,0.00,,,0.30,86,Wunderground v.1.15,2013-05-11 17:56:00,
2013-05-11 14:01:00,58.7,42.6,29.80,South,180,16.0,-999.0,55,0.00,,,0.30,128,Wunderground v.1.15,2013-05-11 18:01:00,
2013-05-11 14:06:00,58.9,42.8,29.80,South,180,17.0,-999.0,55,0.00,,,0.30,163,Wunderground v.1.15,2013-05-11 18:06:00,
2013-05-11 14:11:00,59.0,42.4,29.79,SSW,203,15.0,-999.0,54,0.00,,,0.30,142,Wunderground v.1.15,2013-05-11 18:11:00,
2013-05-11 14:16:00,59.1,42.5,29.78,South,180,20.0,-999.0,54,0.01,,,0.30,174,Wunderground v.1.15,2013-05-11 18:16:00,
2013-05-11 14:21:00,59.1,42.5,29.77,South,180,17.0,-999.0,54,0.01,,,0.30,218,Wunderground v.1.15,2013-05-11 18:21:00,
2013-05-11 14:26:00,59.0,42.4,29.78,South,180,20.0,-999.0,54,0.01,,,0.30,158,Wunderground v.1.15,2013-05-11 18:26:00,
2013-05-11 14:31:00,58.6,42.0,29.78,South,180,17.0,-999.0,54,0.01,,,0.30,169,Wunderground v.1.15,2013-05-11 18:31:00,
2013-05-11 14:36:00,58.6,42.0,29.78,South,180,14.0,-999.0,54,0.01,,,0.30,146,Wunderground v.1.15,2013-05-11 18:36:00,
2013-05-11 14:41:00,58.6,42.0,29.78,South,180,15.0,-999.0,54,0.01,,,0.30,127,Wunderground v.1.15,2013-05-11 18:41:00,
2013-05-11 14:46:00,58.7,42.1,29.78,South,180,17.0,-999.0,54,0.01,,,0.30,178,Wunderground v.1.15,2013-05-11 18:46:00,
2013-05-11 14:51:00,58.5,41.9,29.78,South,180,17.0,-999.0,54,0.01,,,0.30,184,Wunderground v.1.15,2013-05-11 18:51:00,
2013-05-11 14:56:00,58.5,41.9,29.78,South,180,16.0,-999.0,54,0.01,,,0.30,173,Wunderground v.1.15,2013-05-11 18:56:00,
2013-05-11 15:01:00,58.4,41.8,29.77,South,180,19.0,-999.0,54,0.01,,,0.30,144,Wunderground v.1.15,2013-05-11 19:01:00,
2013-05-11 15:06:00,58.5,41.9,29.77,South,180,13.0,-999.0,54,0.01,,,0.30,118,Wunderground v.1.15,2013-05-11 19:06:00,
2013-05-11 15:11:00,58.6,42.0,29.76,South,180,15.0,-999.0,54,0.01,,,0.30,134,Wunderground v.1.15,2013-05-11 19:11:00,
2013-05-11 15:16:00,58.7,42.1,29.76,South,180,13.0,-999.0,54,0.00,,,0.30,146,Wunderground v.1.15,2013-05-11 19:16:00,
2013-05-11 15:21:00,58.9,41.8,29.75,South,180,15.0,-999.0,53,0.00,,,0.30,172,Wunderground v.1.15,2013-05-11 19:21:00,
2013-05-11 15:26:00,59.2,42.1,29.75,South,180,17.0,-999.0,53,0.00,,,0.30,346,Wunderground v.1.15,2013-05-11 19:26:00,
2013-05-11 15:31:00,59.5,42.3,29.76,South,180,21.0,-999.0,53,0.00,,,0.30,346,Wunderground v.1.15,2013-05-11 19:31:00,
2013-05-11 15:36:00,59.6,42.4,29.76,South,180,19.0,-999.0,53,0.00,,,0.30,645,Wunderground v.1.15,2013-05-11 19:36:00,
2013-05-11 15:41:00,59.5,42.3,29.75,South,180,17.0,-999.0,53,0.00,,,0.30,654,Wunderground v.1.15,2013-05-11 19:41:00,
2013-05-11 15:46:00,59.6,42.4,29.76,South,180,17.0,-999.0,53,0.00,,,0.30,582,Wunderground v.1.15,2013-05-11 19:46:00,
2013-05-11 15:51:00,59.7,42.5,29.76,South,180,14.0,-999.0,53,0.00,,,0.30,584,Wunderground v.1.15,2013-05-11 19:51:00,
2013-05-11 15:56:00,59.8,42.6,29.76,South,180,16.0,-999.0,53,0.00,,,0.30,533,Wunderground v.1.15,2013-05-11 19:56:00,
2013-05-11 16:01:00,59.7,42.5,29.76,South,180,15.0,-999.0,53,0.00,,,0.30,516,Wunderground v.1.15,2013-05-11 20:01:00,
2013-05-11 16:06:00,59.7,43.0,29.76,South,180,16.0,-999.0,54,0.00,,,0.30,517,Wunderground v.1.15,2013-05-11 20:06:00,
2013-05-11 16:11:00,59.7,43.0,29.76,SSW,203,17.0,-999.0,54,0.00,,,0.30,272,Wunderground v.1.15,2013-05-11 20:11:00,
2013-05-11 16:16:00,59.5,42.8,29.76,South,180,18.0,-999.0,54,0.00,,,0.30,343,Wunderground v.1.15,2013-05-11 20:16:00,
2013-05-11 16:21:00,59.4,42.7,29.76,SSW,203,17.0,-999.0,54,0.00,,,0.30,329,Wunderground v.1.15,2013-05-11 20:21:00,
2013-05-11 16:26:00,59.1,42.5,29.77,SSW,203,17.0,-999.0,54,0.00,,,0.30,473,Wunderground v.1.15,2013-05-11 20:26:00,
2013-05-11 16:31:00,58.9,42.3,29.76,SSW,203,16.0,-999.0,54,0.00,,,0.30,373,Wunderground v.1.15,2013-05-11 20:31:00,
2013-05-11 16:36:00,58.9,42.3,29.77,SSW,203,16.0,-999.0,54,0.00,,,0.30,417,Wunderground v.1.15,2013-05-11 20:36:00,
2013-05-11 16:41:00,58.6,42.0,29.77,SSW,203,16.0,-999.0,54,0.00,,,0.30,283,Wunderground v.1.15,2013-05-11 20:41:00,
2013-05-11 16:46:00,58.5,41.9,29.77,SSW,203,13.0,-999.0,54,0.00,,,0.30,236,Wunderground v.1.15,2013-05-11 20:46:00,
2013-05-11 16:51:00,58.5,41.9,29.77,SSW,203,15.0,-999.0,54,0.00,,,0.30,185,Wunderground v.1.15,2013-05-11 20:51:00,
2013-05-11 16:56:00,58.3,41.7,29.77,SSW,203,13.0,-999.0,54,0.00,,,0.30,155,Wunderground v.1.15,2013-05-11 20:56:00,
2013-05-11 17:01:00,58.1,41.5,29.77,SSW,203,11.0,-999.0,54,0.00,,,0.30,188,Wunderground v.1.15,2013-05-11 21:01:00,
2013-05-11 17:06:00,58.0,41.4,29.77,SSW,203,6.0,-999.0,54,0.00,,,0.30,148,Wunderground v.1.15,2013-05-11 21:06:00,
2013-05-11 17:11:00,57.9,41.3,29.77,SSW,203,6.0,-999.0,54,0.00,,,0.30,87,Wunderground v.1.15,2013-05-11 21:11:00,
2013-05-11 17:16:00,57.7,41.2,29.78,SW,225,7.0,-999.0,54,0.00,,,0.30,30,Wunderground v.1.15,2013-05-11 21:16:00,
2013-05-11 17:21:00,57.6,41.1,29.78,SW,225,6.0,-999.0,54,0.00,,,0.30,21,Wunderground v.1.15,2013-05-11 21:21:00,
2013-05-11 17:26:00,57.5,41.0,29.77,SSW,203,8.0,-999.0,54,0.00,,,0.30,33,Wunderground v.1.15,2013-05-11 21:26:00,
2013-05-11 17:31:00,57.5,41.0,29.76,SSW,203,6.0,-999.0,54,0.00,,,0.30,58,Wunderground v.1.15,2013-05-11 21:31:00,
2013-05-11 17:36:00,57.6,41.1,29.77,SSW,203,9.0,-999.0,54,0.00,,,0.30,62,Wunderground v.1.15,2013-05-11 21:36:00,
2013-05-11 17:41:00,57.6,41.1,29.76,SSW,203,8.0,-999.0,54,0.00,,,0.30,37,Wunderground v.1.15,2013-05-11 21:41:00,
2013-05-11 17:46:00,57.6,41.1,29.76,SSW,203,8.0,-999.0,54,0.00,,,0.30,34,Wunderground v.1.15,2013-05-11 21:46:00,
2013-05-11 17:51:00,57.6,41.1,29.76,South,180,12.0,-999.0,54,0.00,,,0.30,18,Wunderground v.1.15,2013-05-11 21:51:00,
2013-05-11 17:56:00,57.5,41.0,29.76,SSW,203,7.0,-999.0,54,0.00,,,0.30,14,Wunderground v.1.15,2013-05-11 21:56:00,
2013-05-11 18:01:00,57.4,40.9,29.76,WNW,293,5.0,-999.0,54,0.00,,,0.30,9,Wunderground v.1.15,2013-05-11 22:01:00,
2013-05-11 18:06:00,57.3,40.8,29.76,WNW,293,6.0,-999.0,54,0.00,,,0.30,7,Wunderground v.1.15,2013-05-11 22:06:00,
2013-05-11 18:11:00,57.3,40.8,29.77,WSW,248,3.0,-999.0,54,0.02,,,0.30,7,Wunderground v.1.15,2013-05-11 22:11:00,
2013-05-11 18:16:00,57.5,41.0,29.76,SW,225,5.0,-999.0,54,0.09,,,0.30,9,Wunderground v.1.15,2013-05-11 22:16:00,
2013-05-11 18:21:00,57.6,40.6,29.77,WNW,293,7.0,-999.0,53,0.09,,,0.30,0,Wunderground v.1.15,2013-05-11 22:21:00,
2013-05-11 18:26:00,57.8,40.8,29.78,WSW,248,7.0,-999.0,53,0.11,,,0.30,0,Wunderground v.1.15,2013-05-11 22:26:00,
2013-05-11 18:31:00,58.1,41.0,29.77,WNW,293,4.0,-999.0,53,0.12,,,0.30,0,Wunderground v.1.15,2013-05-11 22:31:00,
2013-05-11 18:36:00,58.4,41.3,29.76,WSW,248,8.0,-999.0,53,0.13,,,0.30,7,Wunderground v.1.15,2013-05-11 22:36:00,
2013-05-11 18:41:00,58.7,41.6,29.76,SW,225,5.0,-999.0,53,0.13,,,0.30,12,Wunderground v.1.15,2013-05-11 22:41:00,
2013-05-11 18:46:00,59.0,41.9,29.77,WSW,248,7.0,-999.0,53,0.13,,,0.30,5,Wunderground v.1.15,2013-05-11 22:46:00,
2013-05-11 18:51:00,59.1,42.0,29.76,WSW,248,8.0,-999.0,53,0.13,,,0.30,7,Wunderground v.1.15,2013-05-11 22:51:00,
2013-05-11 18:56:00,59.2,42.1,29.76,WSW,248,9.0,-999.0,53,0.13,,,0.30,5,Wunderground v.1.15,2013-05-11 22:56:00,
2013-05-11 19:01:00,59.1,42.0,29.76,SW,225,6.0,-999.0,53,0.13,,,0.30,0,Wunderground v.1.15,2013-05-11 23:01:00,
2013-05-11 19:06:00,59.1,42.0,29.76,WSW,248,8.0,-999.0,53,0.13,,,0.30,5,Wunderground v.1.15,2013-05-11 23:06:00,
2013-05-11 19:11:00,59.1,41.5,29.76,WSW,248,11.0,-999.0,52,0.11,,,0.30,0,Wunderground v.1.15,2013-05-11 23:11:00,
2013-05-11 19:16:00,59.0,41.9,29.75,SSW,203,6.0,-999.0,53,0.04,,,0.30,9,Wunderground v.1.15,2013-05-11 23:16:00,
2013-05-11 19:21:00,58.9,41.3,29.75,SW,225,6.0,-999.0,52,0.04,,,0.30,7,Wunderground v.1.15,2013-05-11 23:21:00,
2013-05-11 19:26:00,58.7,41.1,29.76,WSW,248,8.0,-999.0,52,0.03,,,0.30,0,Wunderground v.1.15,2013-05-11 23:26:00,
2013-05-11 19:31:00,58.6,41.0,29.75,SW,225,6.0,-999.0,52,0.02,,,0.30,5,Wunderground v.1.15,2013-05-11 23:31:00,
2013-05-11 19:36:00,58.7,41.1,29.75,SW,225,9.0,-999.0,52,0.01,,,0.30,5,Wunderground v.1.15,2013-05-11 23:36:00,
2013-05-11 19:41:00,58.7,41.1,29.75,SW,225,8.0,-999.0,52,0.01,,,0.30,0,Wunderground v.1.15,2013-05-11 23:41:00,
2013-05-11 19:46:00,58.5,40.9,29.75,SW,225,8.0,-999.0,52,0.01,,,0.30,0,Wunderground v.1.15,2013-05-11 23:46:00,
2013-05-11 19:51:00,58.4,40.8,29.74,SW,225,10.0,-999.0,52,0.01,,,0.30,0,Wunderground v.1.15,2013-05-11 23:51:00,
2013-05-11 19:56:00,58.1,40.6,29.74,SW,225,8.0,-999.0,52,0.01,,,0.30,0,Wunderground v.1.15,2013-05-11 23:56:00,
2013-05-11 20:01:00,57.8,40.8,29.74,SSW,203,6.0,-999.0,53,0.01,,,0.30,0,Wunderground v.1.15,2013-05-12 00:01:00,
2013-05-11 20:06:00,57.5,40.5,29.74,SW,225,6.0,-999.0,53,0.01,,,0.30,0,Wunderground v.1.15,2013-05-12 00:06:00,
2013-05-11 20:11:00,57.2,40.2,29.74,SW,225,6.0,-999.0,53,0.01,,,0.30,0,Wunderground v.1.15,2013-05-12 00:11:00,
2013-05-11 20:16:00,57.0,40.0,29.74,SW,225,8.0,-999.0,53,0.01,,,0.30,0,Wunderground v.1.15,2013-05-12 00:16:00,
2013-05-11 20:21:00,56.9,39.9,29.75,West,270,6.0,-999.0,53,0.01,,,0.30,0,Wunderground v.1.15,2013-05-12 00:21:00,
2013-05-11 20:26:00,57.0,40.0,29.75,West,270,6.0,-999.0,53,0.01,,,0.30,0,Wunderground v.1.15,2013-05-12 00:26:00,
2013-05-11 20:31:00,57.3,40.3,29.74,WSW,248,3.0,-999.0,53,0.01,,,0.30,0,Wunderground v.1.15,2013-05-12 00:31:00,
2013-05-11 20:36:00,57.6,40.6,29.75,SSW,203,11.0,-999.0,53,0.01,,,0.30,0,Wunderground v.1.15,2013-05-12 00:36:00,
2013-05-11 20:41:00,57.4,39.9,29.74,SSW,203,7.0,-999.0,52,0.01,,,0.30,0,Wunderground v.1.15,2013-05-12 00:41:00,
2013-05-11 20:46:00,57.4,39.9,29.74,SSW,203,9.0,-999.0,52,0.01,,,0.30,0,Wunderground v.1.15,2013-05-12 00:46:00,
2013-05-11 20:51:00,57.4,39.9,29.74,SSW,203,9.0,-999.0,52,0.01,,,0.30,0,Wunderground v.1.15,2013-05-12 00:51:00,
2013-05-11 20:56:00,57.3,39.8,29.74,SSW,203,7.0,-999.0,52,0.01,,,0.30,0,Wunderground v.1.15,2013-05-12 00:56:00,
2013-05-11 21:01:00,57.2,39.7,29.74,SSW,203,5.0,-999.0,52,0.01,,,0.30,0,Wunderground v.1.15,2013-05-12 01:01:00,
2013-05-11 21:06:00,57.0,39.5,29.74,SSW,203,7.0,-999.0,52,0.01,,,0.30,0,Wunderground v.1.15,2013-05-12 01:06:00,
2013-05-11 21:11:00,56.8,39.8,29.74,SSW,203,8.0,-999.0,53,0.01,,,0.30,0,Wunderground v.1.15,2013-05-12 01:11:00,
2013-05-11 21:16:00,56.7,39.7,29.74,SW,225,8.0,-999.0,53,0.01,,,0.30,0,Wunderground v.1.15,2013-05-12 01:16:00,
2013-05-11 21:21:00,56.6,39.7,29.75,SW,225,6.0,-999.0,53,0.01,,,0.30,0,Wunderground v.1.15,2013-05-12 01:21:00,
2013-05-11 21:26:00,56.5,39.6,29.74,SW,225,7.0,-999.0,53,0.00,,,0.30,0,Wunderground v.1.15,2013-05-12 01:26:00,
2013-05-11 21:31:00,56.6,39.7,29.75,SW,225,7.0,-999.0,53,0.00,,,0.30,0,Wunderground v.1.15,2013-05-12 01:31:00,
2013-05-11 21:36:00,56.5,39.6,29.75,SSW,203,6.0,-999.0,53,0.00,,,0.30,0,Wunderground v.1.15,2013-05-12 01:36:00,
2013-05-11 21:41:00,56.6,39.2,29.74,SSW,203,8.0,-999.0,52,0.00,,,0.30,0,Wunderground v.1.15,2013-05-12 01:41:00,
2013-05-11 21:46:00,56.6,39.2,29.74,SSW,203,8.0,-999.0,52,0.00,,,0.30,0,Wunderground v.1.15,2013-05-12 01:46:00,
2013-05-11 21:51:00,56.6,39.2,29.74,SSW,203,7.0,-999.0,52,0.00,,,0.30,0,Wunderground v.1.15,2013-05-12 01:51:00,
2013-05-11 21:56:00,56.6,39.2,29.73,SSW,203,5.0,-999.0,52,0.00,,,0.30,0,Wunderground v.1.15,2013-05-12 01:56:00,
2013-05-11 22:01:00,56.7,39.3,29.73,SSW,203,10.0,-999.0,52,0.00,,,0.30,0,Wunderground v.1.15,2013-05-12 02:01:00,
2013-05-11 22:06:00,56.7,39.3,29.73,SSW,203,8.0,-999.0,52,0.00,,,0.30,0,Wunderground v.1.15,2013-05-12 02:06:00,
2013-05-11 22:11:00,57.1,39.6,29.73,SSW,203,9.0,-999.0,52,0.00,,,0.30,0,Wunderground v.1.15,2013-05-12 02:11:00,
2013-05-11 22:16:00,57.3,39.8,29.72,SSW,203,7.0,-999.0,52,0.00,,,0.30,0,Wunderground v.1.15,2013-05-12 02:16:00,
2013-05-11 22:21:00,57.3,39.8,29.72,SW,225,10.0,-999.0,52,0.00,,,0.30,0,Wunderground v.1.15,2013-05-12 02:21:00,
2013-05-11 22:26:00,57.0,39.5,29.72,SW,225,6.0,-999.0,52,0.00,,,0.30,0,Wunderground v.1.15,2013-05-12 02:26:00,
2013-05-11 22:31:00,57.0,39.0,29.72,SW,225,6.0,-999.0,51,0.00,,,0.30,0,Wunderground v.1.15,2013-05-12 02:31:00,
2013-05-11 22:36:00,57.2,39.2,29.72,SW,225,3.0,-999.0,51,0.00,,,0.30,0,Wunderground v.1.15,2013-05-12 02:36:00,
2013-05-11 22:41:00,57.2,39.2,29.71,SW,225,6.0,-999.0,51,0.00,,,0.30,0,Wunderground v.1.15,2013-05-12 02:41:00,
2013-05-11 22:46:00,57.2,39.2,29.72,SSW,203,6.0,-999.0,51,0.00,,,0.30,0,Wunderground v.1.15,2013-05-12 02:46:00,
2013-05-11 22:51:00,57.1,39.1,29.72,SW,225,6.0,-999.0,51,0.00,,,0.30,0,Wunderground v.1.15,2013-05-12 02:51:00,
2013-05-11 22:56:00,57.0,39.0,29.72,SW,225,4.0,-999.0,51,0.00,,,0.30,0,Wunderground v.1.15,2013-05-12 02:56:00,
2013-05-11 23:01:00,57.0,39.0,29.72,SW,225,7.0,-999.0,51,0.00,,,0.30,0,Wunderground v.1.15,2013-05-12 03:01:00,
2013-05-11 23:06:00,56.9,38.9,29.72,SSW,203,7.0,-999.0,51,0.00,,,0.30,0,Wunderground v.1.15,2013-05-12 03:06:00,
2013-05-11 23:11:00,56.6,38.7,29.71,SSW,203,7.0,-999.0,51,0.00,,,0.30,0,Wunderground v.1.15,2013-05-12 03:11:00,
2013-05-11 23:16:00,56.4,38.5,29.72,SSW,203,6.0,-999.0,51,0.00,,,0.30,0,Wunderground v.1.15,2013-05-12 03:16:00,
2013-05-11 23:21:00,56.4,38.5,29.72,SSW,203,5.0,-999.0,51,0.00,,,0.30,0,Wunderground v.1.15,2013-05-12 03:21:00,
2013-05-11 23:26:00,56.4,38.5,29.72,SW,225,5.0,-999.0,51,0.00,,,0.30,0,Wunderground v.1.15,2013-05-12 03:26:00,
2013-05-11 23:31:00,56.4,38.5,29.72,SW,225,4.0,-999.0,51,0.00,,,0.30,0,Wunderground v.1.15,2013-05-12 03:31:00,
2013-05-11 23:36:00,56.2,38.3,29.71,SW,225,5.0,-999.0,51,0.00,,,0.30,0,Wunderground v.1.15,2013-05-12 03:36:00,
2013-05-11 23:41:00,56.1,38.2,29.70,SSW,203,5.0,-999.0,51,0.00,,,0.30,0,Wunderground v.1.15,2013-05-12 03:41:00,
2013-05-11 23:46:00,56.2,38.3,29.70,SSW,203,6.0,-999.0,51,0.00,,,0.30,0,Wunderground v.1.15,2013-05-12 03:46:00,
2013-05-11 23:51:00,56.3,38.4,29.70,SW,225,4.0,-999.0,51,0.00,,,0.30,0,Wunderground v.1.15,2013-05-12 03:51:00,
2013-05-11 23:56:00,56.2,38.3,29.70,SW,225,4.0,-999.0,51,0.00,,,0.30,0,Wunderground v.1.15,2013-05-12 03:56:00,